Time;durP1;ratioP1;P1;durP2;ratioP2;P2;SDS_P1;SDS_P2;PMS_P1;PMS_P2;Temp;Humidity;BMP_temperature;BMP_pressure;BME280_temperature;BME280_humidity;BME280_pressure;Samples;Min_cycle;Max_cycle;Signal;HPM_P1;HPM_P2
2022/03/21 00:01:05;;;;;;;9.77;3.25;;;;;;;4.04;56.13;101564.75;5072720;28;20115;-58
2022/03/21 00:03:30;;;;;;;11.32;3.83;;;;;;;3.81;55.48;101531.75;5072521;28;20032;-54
2022/03/21 00:05:57;;;;;;;12.40;3.50;;;;;;;4.00;55.53;101577.22;5071715;28;20035;-55
2022/03/21 00:08:24;;;;;;;14.48;3.65;;;;;;;3.96;56.24;101570.25;5072454;28;20024;-54
2022/03/21 00:10:51;;;;;;;12.13;3.55;;;;;;;3.96;55.67;101564.94;5071998;28;20435;-55
2022/03/21 00:13:17;;;;;;;14.38;3.63;;;;;;;3.93;55.99;101554.44;5071522;28;20036;-54
2022/03/21 00:15:44;;;;;;;9.57;3.35;;;;;;;3.94;56.12;101550.88;5053805;28;20078;-56
2022/03/21 00:18:13;;;;;;;8.52;2.95;;;;;;;3.85;56.19;101539.56;5054493;28;20028;-56
2022/03/21 00:20:40;;;;;;;13.52;3.05;;;;;;;3.90;56.27;101543.91;5036965;28;20029;-56
2022/03/21 00:23:06;;;;;;;8.45;2.90;;;;;;;3.78;56.73;101522.09;5071586;28;20028;-55
2022/03/21 00:25:32;;;;;;;11.90;2.95;;;;;;;3.87;56.38;101537.78;5072343;28;20372;-56
2022/03/21 00:27:58;;;;;;;8.35;2.97;;;;;;;3.83;56.61;101519.34;5071823;28;20114;-53
2022/03/21 00:30:25;;;;;;;6.57;2.70;;;;;;;3.64;56.75;101487.16;5071442;28;20036;-56
2022/03/21 00:32:50;;;;;;;11.90;3.13;;;;;;;3.77;56.60;101528.31;5071414;28;20049;-58
2022/03/21 00:35:16;;;;;;;15.75;3.40;;;;;;;3.80;56.68;101524.72;5071853;28;20090;-54
2022/03/21 00:37:44;;;;;;;13.73;3.08;;;;;;;3.78;56.97;101532.69;5071853;28;20116;-59
2022/03/21 00:40:11;;;;;;;15.48;3.30;;;;;;;3.76;56.67;101529.22;5071092;28;20040;-58
2022/03/21 00:42:38;;;;;;;8.93;2.78;;;;;;;3.75;57.33;101529.25;5053587;28;20032;-53
2022/03/21 00:45:06;;;;;;;10.55;2.70;;;;;;;3.71;56.95;101531.97;5071783;28;20028;-57
2022/03/21 00:47:33;;;;;;;8.10;2.72;;;;;;;3.68;57.45;101542.63;5071579;28;20440;-57
2022/03/21 00:49:59;;;;;;;8.88;2.97;;;;;;;3.59;57.51;101532.28;5071144;28;20036;-54
2022/03/21 00:52:24;;;;;;;11.88;3.25;;;;;;;3.48;57.84;101519.28;5052972;28;20068;-55
2022/03/21 00:54:50;;;;;;;7.82;2.60;;;;;;;3.40;57.22;101494.78;5071492;28;20075;-54
2022/03/21 00:57:15;;;;;;;17.23;3.65;;;;;;;3.61;57.29;101537.53;5071501;28;20397;-55
2022/03/21 00:59:41;;;;;;;11.55;2.83;;;;;;;3.49;57.60;101515.72;5070936;28;20119;-55
2022/03/21 01:02:08;;;;;;;10.07;3.00;;;;;;;3.35;57.92;101492.22;5071337;28;20061;-56
2022/03/21 01:04:37;;;;;;;10.02;3.10;;;;;;;3.58;57.37;101539.34;5071090;28;20089;-56
2022/03/21 01:07:03;;;;;;;15.95;3.10;;;;;;;3.54;57.72;101528.88;5053283;28;20442;-56
2022/03/21 01:09:29;;;;;;;10.73;2.92;;;;;;;3.51;57.82;101531.59;5071135;28;20067;-56
2022/03/21 01:11:54;;;;;;;14.77;3.00;;;;;;;3.53;57.95;101527.13;5070746;28;20036;-56
2022/03/21 01:14:20;;;;;;;10.60;3.17;;;;;;;3.47;57.66;101517.56;5071638;28;20056;-51
2022/03/21 01:16:46;;;;;;;14.77;3.15;;;;;;;3.49;57.65;101526.31;5071536;28;20025;-56
2022/03/21 01:19:11;;;;;;;9.95;2.92;;;;;;;3.46;58.10;101531.69;5070439;28;20335;-55
2022/03/21 01:21:37;;;;;;;8.88;3.00;;;;;;;3.44;58.09;101520.28;5070823;28;20041;-57
2022/03/21 01:24:03;;;;;;;12.23;2.97;;;;;;;3.41;58.35;101523.00;5071326;28;20036;-54
2022/03/21 01:26:28;;;;;;;11.70;3.10;;;;;;;3.38;58.54;101517.78;5071025;28;20109;-56
2022/03/21 01:28:56;;;;;;;14.88;2.92;;;;;;;3.22;58.44;101483.72;5070692;28;20390;-57
2022/03/21 01:31:22;;;;;;;9.52;2.65;;;;;;;3.40;58.27;101526.56;5070578;28;20108;-55
2022/03/21 01:33:48;;;;;;;12.07;3.22;;;;;;;3.37;58.56;101518.66;5070808;28;20060;-53
2022/03/21 01:36:13;;;;;;;7.93;2.75;;;;;;;3.33;58.40;101517.88;5070482;28;20037;-59
2022/03/21 01:38:39;;;;;;;9.20;2.95;;;;;;;3.31;58.54;101517.03;5070835;28;20031;-55
2022/03/21 01:41:04;;;;;;;13.30;3.40;;;;;;;3.30;59.03;101510.88;5070425;28;20162;-55
2022/03/21 01:43:30;;;;;;;9.07;3.40;;;;;;;3.23;59.51;101503.97;5070513;28;20412;-55
2022/03/21 01:45:55;;;;;;;10.57;2.90;;;;;;;3.19;58.98;101502.31;5070526;28;20020;-55
2022/03/21 01:48:21;;;;;;;14.63;3.22;;;;;;;3.24;59.25;101515.41;5070524;28;20029;-53
2022/03/21 01:50:46;;;;;;;13.30;3.10;;;;;;;3.21;59.23;101519.03;5070573;28;20121;-54
2022/03/21 01:55:58;;;;;;;10.25;2.92;;;;;;;3.13;59.51;101519.19;5070368;28;20474;-57
2022/03/21 01:58:27;;;;;;;11.23;3.17;;;;;;;3.09;59.83;101516.63;5070690;28;20058;-59
2022/03/21 02:00:52;;;;;;;11.20;2.90;;;;;;;2.97;59.61;101502.78;5070165;28;20541;-57
2022/03/21 02:03:22;;;;;;;16.60;3.42;;;;;;;3.11;59.66;101523.66;5070431;28;20139;-58
2022/03/21 02:05:47;;;;;;;13.20;2.88;;;;;;;3.02;59.61;101510.63;5070635;28;20032;-55
2022/03/21 02:08:14;;;;;;;9.73;2.75;;;;;;;3.01;59.86;101515.03;5070280;28;20032;-54
2022/03/21 02:10:44;;;;;;;11.00;3.50;;;;;;;2.87;59.64;101485.34;5070210;28;20106;-56
2022/03/21 02:13:10;;;;;;;12.55;2.78;;;;;;;3.01;59.93;101520.34;5070836;28;20036;-55
2022/03/21 02:15:36;;;;;;;9.55;2.75;;;;;;;3.01;60.11;101515.03;5070412;28;20429;-53
2022/03/21 02:18:03;;;;;;;11.02;2.80;;;;;;;2.94;60.08;101502.84;5056128;28;20043;-57
2022/03/21 02:20:32;;;;;;;13.15;3.10;;;;;;;3.00;60.43;101517.72;5074078;28;20025;-55
2022/03/21 02:23:12;;;;;;;10.40;3.20;;;;;;;2.86;59.91;101489.78;5074228;28;20371;-59
2022/03/21 02:25:42;;;;;;;13.88;2.97;;;;;;;2.98;59.95;101515.13;5073666;28;20032;-58
2022/03/21 02:28:09;;;;;;;10.68;3.38;;;;;;;2.95;60.02;101522.22;5073744;28;20033;-56
2022/03/21 02:30:39;;;;;;;17.13;4.03;;;;;;;2.95;60.32;101519.59;5074085;28;20036;-56
2022/03/21 02:33:05;;;;;;;11.48;3.58;;;;;;;2.90;60.53;101522.34;5073897;28;20189;-57
2022/03/21 02:35:32;;;;;;;14.57;3.25;;;;;;;2.87;60.89;101520.63;5072604;28;20036;-55
2022/03/21 02:37:58;;;;;;;13.60;3.78;;;;;;;2.86;60.53;101520.66;5073696;28;20028;-54
2022/03/21 02:40:24;;;;;;;14.40;3.03;;;;;;;2.85;60.39;101522.44;5073933;28;20093;-57
2022/03/21 02:42:50;;;;;;;11.13;2.80;;;;;;;2.82;60.76;101524.28;5074006;28;20047;-55
2022/03/21 02:45:16;;;;;;;12.40;3.20;;;;;;;2.79;60.71;101519.94;5073874;28;20425;-55
2022/03/21 02:47:42;;;;;;;15.50;3.38;;;;;;;2.70;60.88;101507.75;5074026;28;20501;-53
2022/03/21 02:50:11;;;;;;;10.68;3.38;;;;;;;2.72;60.95;101519.19;5073874;28;20032;-57
2022/03/21 02:52:39;;;;;;;9.93;3.15;;;;;;;2.78;61.26;101535.81;5073529;28;20085;-55
2022/03/21 02:55:05;;;;;;;10.90;2.97;;;;;;;2.69;61.17;101519.25;5055504;28;20136;-58
2022/03/21 02:57:31;;;;;;;12.95;3.40;;;;;;;2.64;61.16;101510.50;5073350;28;20040;-57
2022/03/21 02:59:57;;;;;;;15.05;3.25;;;;;;;2.67;61.10;101531.63;5073355;28;20074;-58
2022/03/21 03:02:23;;;;;;;12.68;3.25;;;;;;;2.59;61.80;101512.38;5073392;28;20028;-59
2022/03/21 03:04:48;;;;;;;13.25;3.10;;;;;;;2.62;61.46;101522.91;5072975;28;20028;-56
2022/03/21 03:07:14;;;;;;;12.15;3.63;;;;;;;2.62;61.57;101522.03;5073097;28;20031;-57
2022/03/21 03:09:39;;;;;;;13.70;3.80;;;;;;;2.60;61.47;101511.47;5073408;28;20036;-54
2022/03/21 03:12:05;;;;;;;10.57;3.05;;;;;;;2.59;61.38;101515.03;5055003;28;20043;-56
2022/03/21 03:14:31;;;;;;;15.20;3.47;;;;;;;2.57;61.53;101504.50;5054844;28;20102;-56
2022/03/21 03:16:56;;;;;;;11.15;3.30;;;;;;;2.52;61.46;101498.41;5072433;28;20021;-59
2022/03/21 03:19:22;;;;;;;14.23;4.05;;;;;;;2.53;61.50;101500.19;5072407;28;20089;-57
2022/03/21 03:21:49;;;;;;;30.00;4.47;;;;;;;2.53;61.85;101501.94;5072769;28;20076;-57
2022/03/21 03:24:18;;;;;;;11.18;3.28;;;;;;;2.24;61.54;101459.31;5072688;28;20032;-58
2022/03/21 03:26:44;;;;;;;14.18;4.03;;;;;;;2.43;61.71;101496.84;5073161;28;20031;-58
2022/03/21 03:29:09;;;;;;;14.40;4.13;;;;;;;2.47;61.84;101496.78;5054130;28;20028;-56
2022/03/21 03:31:36;;;;;;;11.95;3.70;;;;;;;2.50;61.64;101502.00;5072621;28;20573;-56
2022/03/21 03:34:02;;;;;;;9.40;3.15;;;;;;;2.30;61.75;101458.31;5072595;28;20055;-54
2022/03/21 03:36:27;;;;;;;11.57;3.75;;;;;;;2.55;61.48;101502.78;5072665;28;20131;-56
2022/03/21 03:38:53;;;;;;;15.48;4.03;;;;;;;2.54;61.75;101499.28;5072282;28;20040;-52
2022/03/21 03:41:19;;;;;;;14.30;3.97;;;;;;;2.51;61.77;101493.16;5072379;28;20032;-56
2022/03/21 03:43:47;;;;;;;9.77;3.13;;;;;;;2.35;61.69;101451.16;5072827;28;20039;-53
2022/03/21 03:46:14;;;;;;;13.85;3.83;;;;;;;2.63;61.63;101494.69;5072917;28;20439;-57
2022/03/21 03:48:41;;;;;;;7.78;3.17;;;;;;;2.66;61.40;101487.59;5072337;28;20120;-55
2022/03/21 03:51:07;;;;;;;11.32;3.70;;;;;;;2.70;61.53;101489.25;5072142;28;20070;-56
2022/03/21 03:53:33;;;;;;;11.15;3.60;;;;;;;2.76;61.16;101490.03;5072411;28;20093;-58
2022/03/21 03:55:59;;;;;;;13.27;4.13;;;;;;;2.80;61.01;101486.41;5072346;28;20111;-56
2022/03/21 03:58:25;;;;;;;9.75;3.40;;;;;;;2.84;61.09;101490.72;5071951;28;20037;-59
2022/03/21 04:00:51;;;;;;;11.05;3.38;;;;;;;2.89;60.67;101494.13;5072404;28;20039;-58
2022/03/21 04:06:01;;;;;;;12.13;3.45;;;;;;;3.06;60.59;101498.19;5071230;28;20078;-62
2022/03/21 04:08:27;;;;;;;12.82;3.80;;;;;;;3.14;60.10;101498.91;5072690;28;20070;-62
2022/03/21 04:10:53;;;;;;;10.20;3.08;;;;;;;3.27;59.53;101500.34;5071872;28;20385;-62
2022/03/21 04:13:19;;;;;;;7.97;3.40;;;;;;;3.94;58.83;101492.56;5071489;28;20035;-55
2022/03/21 04:15:45;;;;;;;13.68;3.35;;;;;;;5.35;54.16;101456.63;5054346;28;20032;-62
2022/03/21 04:18:10;;;;;;;10.63;3.42;;;;;;;7.39;48.84;101489.22;5072171;28;20032;-64
2022/03/21 04:20:37;;;;;;;13.05;3.60;;;;;;;8.88;44.65;101480.16;5071606;28;20036;-63
2022/03/21 04:23:04;;;;;;;10.23;3.20;;;;;;;10.24;41.86;101475.22;5071686;28;20062;-62
2022/03/21 04:25:31;;;;;;;14.35;3.83;;;;;;;11.45;38.96;101483.88;5054219;28;20024;-66
2022/03/21 04:27:56;;;;;;;12.57;3.38;;;;;;;12.31;36.48;101456.41;5054102;28;20107;-65
2022/03/21 04:30:23;;;;;;;14.23;3.97;;;;;;;13.17;34.93;101462.69;5071793;28;20501;-66
2022/03/21 04:32:49;;;;;;;12.38;4.05;;;;;;;13.80;33.60;101486.38;5071715;28;20045;-66
2022/03/21 04:35:15;;;;;;;9.82;3.88;;;;;;;14.45;32.41;101471.13;5072359;28;20036;-66
2022/03/21 04:37:40;;;;;;;12.88;4.35;;;;;;;15.25;30.89;101468.19;5071881;28;20437;-64
2022/03/21 04:40:07;;;;;;;10.23;4.47;;;;;;;16.07;29.48;101468.31;5052477;28;20450;-63
2022/03/21 04:42:37;;;;;;;10.75;4.65;;;;;;;17.04;28.17;101476.97;5071234;28;20029;-63
2022/03/21 04:45:04;;;;;;;11.70;4.40;;;;;;;17.61;26.82;101474.06;5053369;28;20035;-63
2022/03/21 04:47:30;;;;;;;10.45;3.80;;;;;;;18.36;25.45;101479.47;5053686;28;20024;-61
2022/03/21 04:49:56;;;;;;;9.93;4.05;;;;;;;19.07;24.52;101462.34;5052890;28;20028;-66
2022/03/21 04:52:21;;;;;;;10.25;4.13;;;;;;;19.83;23.12;101470.84;5071050;28;20051;-61
2022/03/21 04:54:48;;;;;;;9.95;4.40;;;;;;;20.47;22.09;101476.56;5053681;28;20112;-64
2022/03/21 04:57:14;;;;;;;13.60;4.90;;;;;;;20.79;22.02;101483.50;5071561;28;20071;-65
2022/03/21 04:59:40;;;;;;;10.25;4.72;;;;;;;21.29;21.00;101481.34;5070484;28;20036;-61
2022/03/21 05:02:06;;;;;;;10.32;5.03;;;;;;;21.89;20.36;101470.88;5052604;28;20074;-62
2022/03/21 05:04:32;;;;;;;11.15;4.70;;;;;;;22.59;19.58;101480.03;5071260;28;20445;-61
2022/03/21 05:06:58;;;;;;;10.52;4.88;;;;;;;23.37;18.57;101478.94;5071245;28;20040;-61
2022/03/21 05:09:23;;;;;;;12.40;4.68;;;;;;;24.08;17.63;101463.94;5053019;28;20025;-64
2022/03/21 05:11:49;;;;;;;10.80;5.10;;;;;;;24.46;17.13;101445.06;5070800;28;20512;-63
2022/03/21 05:14:16;;;;;;;9.93;4.65;;;;;;;25.08;16.33;101468.09;5070481;28;20064;-62
2022/03/21 05:16:41;;;;;;;10.93;4.82;;;;;;;25.48;16.09;101467.19;5051538;28;20039;-64
2022/03/21 05:19:07;;;;;;;9.77;4.80;;;;;;;25.97;15.52;101482.38;5069820;28;20032;-64
2022/03/21 05:21:32;;;;;;;10.52;5.00;;;;;;;26.43;14.94;101475.94;5070524;28;20035;-62
2022/03/21 05:32:10;;;;;;;13.82;5.43;;;;;;;28.35;13.15;101466.56;5061764;28;20044;-63
2022/03/21 05:37:20;;;;;;;10.85;5.22;;;;;;;28.99;12.86;101428.72;5070763;28;20068;-62
2022/03/21 05:42:30;;;;;;;8.15;4.13;;;;;;;29.01;12.85;101458.84;5050848;28;20126;-64
2022/03/21 05:44:55;;;;;;;11.70;4.90;;;;;;;27.33;13.50;101462.06;5054100;28;20040;-62
2022/03/21 05:47:20;;;;;;;9.65;4.82;;;;;;;25.35;15.38;101460.41;5071028;28;20040;-63
2022/03/21 05:49:46;;;;;;;12.65;5.32;;;;;;;23.05;17.51;101444.22;5052200;28;20032;-62
2022/03/21 05:52:12;;;;;;;10.48;5.30;;;;;;;21.51;19.27;101468.28;5073039;28;20089;-63
2022/03/21 05:54:37;;;;;;;9.55;5.22;;;;;;;22.75;18.28;101463.72;5075013;28;20104;-61
2022/03/21 05:57:03;;;;;;;13.00;5.47;;;;;;;25.54;15.55;101455.47;5074493;28;20146;-63
2022/03/21 06:02:13;;;;;;;11.82;5.35;;;;;;;29.55;11.89;101429.47;5074761;28;20036;-63
2022/03/21 06:04:39;;;;;;;11.07;5.53;;;;;;;29.91;11.52;101461.34;5068756;28;20047;-62
2022/03/21 06:07:05;;;;;;;13.93;5.78;;;;;;;30.70;10.70;101452.28;5070903;28;20115;-66
2022/03/21 06:09:30;;;;;;;12.82;6.30;;;;;;;31.91;10.26;101454.31;5071691;28;20383;-62
2022/03/21 06:11:56;;;;;;;11.40;5.40;;;;;;;32.87;9.57;101460.53;5074146;28;20032;-58
2022/03/21 06:14:22;;;;;;;12.13;5.40;;;;;;;33.61;9.08;101460.34;5074310;28;20028;-60
2022/03/21 06:16:48;;;;;;;17.50;5.35;;;;;;;34.21;8.70;101464.00;5073011;28;20159;-60
2022/03/21 06:19:14;;;;;;;17.27;5.63;;;;;;;34.84;8.29;101449.47;5072681;28;20039;-59
2022/03/21 06:21:40;;;;;;;11.25;5.20;;;;;;;35.62;7.63;101453.75;5073661;28;20107;-63
2022/03/21 06:24:08;;;;;;;11.30;5.32;;;;;;;36.13;7.71;101453.69;5073380;28;20492;-62
2022/03/21 06:26:34;;;;;;;13.40;5.63;;;;;;;36.62;6.90;101455.78;5053618;28;20458;-63
2022/03/21 06:28:59;;;;;;;11.77;5.28;;;;;;;36.85;6.58;101436.22;5053874;28;20121;-62
2022/03/21 06:31:25;;;;;;;11.63;5.10;;;;;;;37.39;6.68;101454.09;5054387;28;20465;-67
2022/03/21 06:33:50;;;;;;;10.52;4.50;;;;;;;37.94;6.01;101448.38;5055033;28;20045;-63
2022/03/21 06:36:16;;;;;;;11.35;4.82;;;;;;;38.27;6.17;101454.75;5073558;28;20036;-63
2022/03/21 06:38:42;;;;;;;14.65;5.40;;;;;;;38.51;5.77;101440.34;5055949;28;20060;-60
2022/03/21 06:41:08;;;;;;;9.77;5.00;;;;;;;38.75;5.37;101433.13;5073764;28;20115;-63
2022/03/21 06:43:33;;;;;;;10.75;5.15;;;;;;;38.69;5.57;101441.78;5073614;28;20040;-63
2022/03/21 06:45:59;;;;;;;11.93;6.25;;;;;;;38.64;5.82;101442.63;5073609;28;20033;-62
2022/03/21 06:48:27;;;;;;;13.90;5.50;;;;;;;38.53;5.91;101429.72;5073703;28;20043;-59
2022/03/21 06:50:55;;;;;;;9.55;5.53;;;;;;;38.95;5.67;101445.53;5073559;28;20551;-60
2022/03/21 06:53:22;;;;;;;11.40;5.50;;;;;;;39.57;5.15;101431.59;5073175;28;20025;-54
2022/03/21 06:55:48;;;;;;;11.38;6.93;;;;;;;39.69;5.22;101408.03;5073163;28;20032;-58
2022/03/21 06:58:14;;;;;;;13.05;6.63;;;;;;;40.24;4.83;101441.00;5071636;28;20036;-60
2022/03/21 07:00:45;;;;;;;13.07;6.05;;;;;;;41.14;4.83;101439.16;5073421;28;20090;-59
2022/03/21 07:03:15;;;;;;;11.13;4.82;;;;;;;40.77;4.59;101431.28;5071651;28;20439;-58
2022/03/21 07:05:41;;;;;;;12.57;5.03;;;;;;;40.54;4.67;101391.53;5072297;28;20024;-58
2022/03/21 07:08:07;;;;;;;12.90;5.53;;;;;;;40.75;4.60;101426.78;5072722;28;20032;-57
2022/03/21 07:10:33;;;;;;;10.15;5.10;;;;;;;41.02;4.39;101431.09;5072953;28;20099;-57
2022/03/21 07:13:06;;;;;;;11.88;5.63;;;;;;;41.35;4.30;101426.94;5073079;28;20031;-55
2022/03/21 07:15:33;;;;;;;13.80;5.50;;;;;;;41.66;4.15;101423.88;5072738;28;20089;-62
2022/03/21 07:17:58;;;;;;;12.63;5.15;;;;;;;41.85;3.76;101419.16;5054955;28;20127;-57
2022/03/21 07:20:28;;;;;;;13.80;5.65;;;;;;;41.96;4.05;101427.47;5072190;28;20040;-60
2022/03/21 07:22:54;;;;;;;9.60;4.53;;;;;;;41.90;3.75;101409.84;5072854;28;20020;-58
2022/03/21 07:25:20;;;;;;;14.68;5.20;;;;;;;41.71;3.83;101418.19;5071817;28;20512;-58
2022/03/21 07:27:46;;;;;;;10.63;4.90;;;;;;;41.99;3.81;101419.28;5067424;28;20103;-56
2022/03/21 07:30:13;;;;;;;13.85;5.90;;;;;;;42.39;3.49;101427.53;5071072;28;20138;-59
2022/03/21 07:32:39;;;;;;;15.15;5.78;;;;;;;42.43;3.58;101428.59;5070419;28;20048;-59
2022/03/21 07:35:05;;;;;;;18.50;5.90;;;;;;;42.40;3.49;101389.81;5069509;28;20032;-62
2022/03/21 07:37:49;;;;;;;10.32;5.70;;;;;;;43.38;3.60;101426.13;5070501;28;20094;-60
2022/03/21 07:40:16;;;;;;;10.83;5.43;;;;;;;42.58;3.25;101415.50;5070325;28;20430;-59
2022/03/21 07:42:44;;;;;;;11.30;5.40;;;;;;;41.89;3.92;101405.34;5070633;28;20634;-61
2022/03/21 07:47:57;;;;;;;10.82;4.80;;;;;;;41.01;4.02;101395.72;5071783;28;20031;-61
2022/03/21 07:50:26;;;;;;;10.18;4.40;;;;;;;40.30;4.35;101403.44;5071861;28;20029;-59
2022/03/21 07:52:52;;;;;;;10.27;5.00;;;;;;;39.48;4.72;101403.31;5071915;28;20120;-60
2022/03/21 07:55:18;;;;;;;11.50;5.15;;;;;;;39.08;4.75;101401.34;5070132;28;20572;-62
2022/03/21 07:57:44;;;;;;;12.35;4.82;;;;;;;38.71;4.92;101403.22;5072291;28;20021;-58
2022/03/21 08:00:10;;;;;;;12.13;4.78;;;;;;;37.97;5.50;101400.34;5053877;28;20458;-57
2022/03/21 08:02:37;;;;;;;8.38;4.50;;;;;;;36.38;6.40;101410.53;5053449;28;20028;-58
2022/03/21 08:05:04;;;;;;;8.90;4.65;;;;;;;33.76;7.31;101370.13;5071892;28;20038;-62
2022/03/21 08:07:31;;;;;;;9.63;4.55;;;;;;;30.70;9.37;101394.22;5072895;28;20036;-60
2022/03/21 08:09:56;;;;;;;13.02;4.13;;;;;;;27.52;11.55;101402.00;5072367;28;20079;-62
2022/03/21 08:12:21;;;;;;;10.25;4.80;;;;;;;24.83;13.95;101395.28;5072032;28;20478;-63
2022/03/21 08:14:47;;;;;;;9.35;4.88;;;;;;;22.84;16.04;101381.84;5071804;28;20028;-61
2022/03/21 08:17:13;;;;;;;9.77;4.88;;;;;;;21.42;17.25;101403.81;5071758;28;20107;-63
2022/03/21 08:19:38;;;;;;;13.38;4.97;;;;;;;20.23;18.20;101409.94;5053498;28;20039;-64
2022/03/21 08:22:04;;;;;;;13.45;5.07;;;;;;;19.28;20.10;101412.50;5052864;28;20044;-59
2022/03/21 08:24:34;;;;;;;13.10;4.68;;;;;;;18.17;20.55;101360.94;5053631;28;20114;-55
2022/03/21 08:26:59;;;;;;;12.48;4.85;;;;;;;17.46;21.54;101416.66;5072075;28;20067;-61
2022/03/21 08:29:25;;;;;;;14.88;5.32;;;;;;;16.74;22.60;101427.91;5053616;28;20123;-58
2022/03/21 08:31:50;;;;;;;13.23;4.63;;;;;;;16.18;23.82;101417.94;5070671;28;20434;-61
2022/03/21 08:34:16;;;;;;;15.90;3.92;;;;;;;15.84;24.20;101420.56;5071177;28;20040;-58
2022/03/21 08:36:42;;;;;;;13.90;4.18;;;;;;;15.41;24.33;101419.31;5070703;28;20537;-60
2022/03/21 08:39:10;;;;;;;13.10;4.18;;;;;;;15.11;24.60;101432.31;5071157;28;20032;-63
2022/03/21 08:41:36;;;;;;;13.85;3.67;;;;;;;14.74;25.25;101425.09;5071050;28;20493;-60
2022/03/21 08:44:02;;;;;;;15.75;3.75;;;;;;;14.56;25.37;101424.53;5071269;28;20036;-56
2022/03/21 08:46:28;;;;;;;10.63;3.22;;;;;;;14.38;25.94;101424.03;5072076;28;20039;-54
2022/03/21 08:51:38;;;;;;;12.60;2.85;;;;;;;14.19;25.99;101419.94;5070423;28;20074;-58
2022/03/21 08:54:04;;;;;;;12.50;3.45;;;;;;;14.18;25.84;101412.00;5071455;28;20451;-59
2022/03/21 08:56:30;;;;;;;15.43;4.20;;;;;;;14.11;26.27;101405.31;5071721;28;20029;-60
2022/03/21 08:58:56;;;;;;;14.63;3.78;;;;;;;14.04;26.49;101410.28;5068701;28;20024;-58
2022/03/21 09:01:22;;;;;;;12.68;4.05;;;;;;;13.84;26.84;101417.03;5068839;28;20071;-58
2022/03/21 09:03:49;;;;;;;11.55;3.60;;;;;;;13.75;27.13;101416.69;5067977;28;20123;-58
2022/03/21 09:06:15;;;;;;;10.00;3.78;;;;;;;13.83;27.21;101412.59;5067292;28;20381;-58
2022/03/21 09:08:42;;;;;;;10.20;3.63;;;;;;;13.78;26.96;101411.09;5059059;28;20082;-55
2022/03/21 09:11:08;;;;;;;12.27;3.97;;;;;;;13.49;26.93;101378.97;5061900;28;20089;-56
2022/03/21 09:13:34;;;;;;;9.75;3.28;;;;;;;13.79;27.19;101409.28;5053100;28;20024;-54
2022/03/21 09:16:00;;;;;;;11.20;3.10;;;;;;;13.87;26.90;101403.38;5049829;28;20507;-61
2022/03/21 09:18:25;;;;;;;11.73;3.17;;;;;;;13.93;26.83;101393.00;5050394;28;20360;-56
2022/03/21 09:20:51;;;;;;;8.65;2.90;;;;;;;13.96;26.71;101407.22;5052318;28;20025;-56
2022/03/21 09:23:16;;;;;;;11.93;3.50;;;;;;;13.87;26.76;101404.22;5070511;28;20029;-57
2022/03/21 09:25:42;;;;;;;9.80;3.50;;;;;;;13.69;26.95;101395.59;5069595;28;20462;-59
2022/03/21 09:28:08;;;;;;;12.40;3.13;;;;;;;13.55;27.46;101391.16;5069860;28;20024;-63
2022/03/21 09:30:33;;;;;;;11.40;3.72;;;;;;;13.46;27.66;101406.09;5052471;28;20089;-59
2022/03/21 09:32:59;;;;;;;11.75;3.63;;;;;;;13.48;27.90;101392.53;5069075;28;20048;-62
2022/03/21 09:35:25;;;;;;;9.65;3.28;;;;;;;13.59;27.68;101399.88;5051160;28;20036;-59
2022/03/21 09:37:50;;;;;;;12.07;3.28;;;;;;;13.63;27.26;101391.50;5069436;28;20028;-59
2022/03/21 09:40:19;;;;;;;12.60;3.20;;;;;;;13.79;27.24;101401.22;5032276;28;20036;-59
2022/03/21 09:42:45;;;;;;;10.90;3.00;;;;;;;13.84;27.10;101403.56;5069837;28;20032;-62
2022/03/21 09:45:12;;;;;;;15.23;3.67;;;;;;;13.85;27.48;101391.81;5067897;28;20043;-59
2022/03/21 09:50:29;;;;;;;11.55;3.25;;;;;;;13.60;27.11;101391.69;5069851;28;20048;-59
2022/03/21 09:52:55;;;;;;;10.38;3.63;;;;;;;13.43;27.28;101379.41;5070272;28;20095;-57
2022/03/21 09:55:20;;;;;;;14.20;3.20;;;;;;;13.38;27.22;101397.63;5070185;28;20066;-55
2022/03/21 09:57:46;;;;;;;10.32;3.00;;;;;;;13.30;27.21;101384.72;5069814;28;20471;-54
2022/03/21 10:00:12;;;;;;;9.20;2.97;;;;;;;13.25;27.94;101376.06;5051743;28;20032;-53
2022/03/21 10:02:37;;;;;;;9.65;3.22;;;;;;;13.35;27.89;101387.06;5052584;28;20520;-58
2022/03/21 10:05:03;;;;;;;20.48;7.22;;;;;;;13.41;27.82;101392.06;5070389;28;20423;-54
2022/03/21 10:07:28;;;;;;;10.35;3.40;;;;;;;13.47;27.60;101388.09;5069262;28;20029;-57
2022/03/21 10:10:16;;;;;;;13.60;3.08;;;;;;;13.65;26.83;101386.00;5069893;28;20032;-57
2022/03/21 10:12:42;;;;;;;12.25;3.38;;;;;;;13.58;27.29;101380.19;5052465;28;20547;-56
2022/03/21 10:15:10;;;;;;;11.63;2.88;;;;;;;13.64;27.13;101387.81;5070228;28;20036;-53
2022/03/21 10:17:36;;;;;;;10.40;2.70;;;;;;;13.50;27.60;101363.69;5051645;28;20029;-56
2022/03/21 10:20:04;;;;;;;15.55;3.70;;;;;;;13.41;27.32;101350.84;5070414;28;20560;-57
2022/03/21 10:22:32;;;;;;;11.13;3.63;;;;;;;13.67;27.51;101391.28;5069260;28;20119;-58
2022/03/21 10:25:06;;;;;;;16.90;3.58;;;;;;;13.71;27.32;101392.78;5069517;28;20174;-60
2022/03/21 10:27:33;;;;;;;11.77;3.55;;;;;;;13.68;27.15;101382.22;5069620;28;20038;-57
2022/03/21 10:30:08;;;;;;;15.43;3.70;;;;;;;13.65;27.42;101377.94;5068710;28;20032;-54
2022/03/21 10:32:39;;;;;;;13.80;4.33;;;;;;;13.79;27.13;101382.38;5070654;28;20037;-54
2022/03/21 10:35:43;;;;;;;13.88;3.83;;;;;;;14.03;26.49;101371.69;5070115;28;20600;-58
2022/03/21 10:38:09;;;;;;;10.45;3.50;;;;;;;13.86;26.88;101337.88;5038732;28;20383;-54
2022/03/21 10:40:41;;;;;;;13.20;3.30;;;;;;;14.18;26.62;101379.66;5073890;28;20059;-57
2022/03/21 10:43:09;;;;;;;13.43;3.80;;;;;;;14.24;26.24;101379.22;5074069;28;20359;-53
2022/03/21 10:45:35;;;;;;;12.70;3.03;;;;;;;14.20;26.20;101378.56;5073734;28;20036;-54
2022/03/21 10:48:03;;;;;;;12.10;3.42;;;;;;;14.18;26.24;101385.91;5073088;28;20032;-59
2022/03/21 10:50:31;;;;;;;14.00;3.53;;;;;;;14.20;26.36;101383.94;5073759;28;20571;-59
2022/03/21 10:53:14;;;;;;;9.68;3.75;;;;;;;14.24;26.21;101384.59;5055398;28;20031;-58
2022/03/21 10:55:45;;;;;;;13.05;3.60;;;;;;;14.23;26.11;101379.31;5073147;28;20421;-51
2022/03/21 10:58:12;;;;;;;11.10;3.13;;;;;;;14.25;26.22;101380.09;5073072;28;20187;-56
2022/03/21 11:00:37;;;;;;;11.68;3.42;;;;;;;14.16;26.04;101377.06;5072777;28;20036;-57
2022/03/21 11:03:06;;;;;;;10.43;3.40;;;;;;;14.12;26.01;101380.09;5073037;28;20134;-57
2022/03/21 11:05:43;;;;;;;11.38;3.28;;;;;;;14.04;25.97;101372.56;5073035;28;20470;-51
2022/03/21 11:08:11;;;;;;;14.35;3.05;;;;;;;13.84;26.51;101372.13;5072902;28;20028;-57
2022/03/21 11:10:37;;;;;;;13.60;3.65;;;;;;;13.84;26.54;101369.44;5073377;28;20085;-57
2022/03/21 11:13:05;;;;;;;10.40;2.78;;;;;;;13.88;26.38;101368.25;5072608;28;20363;-64
2022/03/21 11:15:33;;;;;;;10.00;3.17;;;;;;;13.98;26.25;101379.25;5073046;28;20495;-63
2022/03/21 11:17:59;;;;;;;8.07;2.80;;;;;;;13.95;25.81;101371.38;5053284;28;20171;-66
2022/03/21 11:20:26;;;;;;;11.20;3.63;;;;;;;13.86;25.73;101340.56;5054598;28;20160;-61
2022/03/21 11:22:55;;;;;;;12.18;2.92;;;;;;;13.75;25.33;101335.94;5072408;28;20059;-63
2022/03/21 11:25:23;;;;;;;11.18;2.95;;;;;;;13.97;25.73;101371.25;5072607;28;20032;-57
2022/03/21 11:28:13;;;;;;;7.80;2.95;;;;;;;14.06;25.54;101370.63;5054732;28;20025;-60
2022/03/21 11:31:00;;;;;;;9.48;2.85;;;;;;;14.00;25.13;101363.00;5072478;28;20075;-57
2022/03/21 11:33:45;;;;;;;6.53;2.30;;;;;;;14.04;24.84;101356.41;5072492;28;20510;-55
2022/03/21 11:36:12;;;;;;;11.70;2.53;;;;;;;13.88;24.65;101352.09;5072596;28;20119;-57
2022/03/21 11:38:45;;;;;;;9.00;2.22;;;;;;;13.61;24.90;101330.66;5071891;28;20029;-60
2022/03/21 11:41:22;;;;;;;8.68;2.20;;;;;;;13.73;24.70;101363.94;5072941;28;20027;-61
2022/03/21 11:44:03;;;;;;;10.00;2.15;;;;;;;13.63;25.17;101361.03;5072239;28;20032;-54
2022/03/21 11:46:33;;;;;;;8.90;2.65;;;;;;;13.44;25.17;101356.91;5037220;28;20127;-61
2022/03/21 11:49:03;;;;;;;7.78;2.00;;;;;;;13.44;25.45;101358.72;5071921;28;20025;-62
2022/03/21 11:51:41;;;;;;;11.88;2.70;;;;;;;13.45;25.31;101361.31;5072094;28;20438;-63
2022/03/21 11:54:36;;;;;;;9.45;2.50;;;;;;;13.42;25.36;101366.88;5071632;28;20028;-62